sensor_id;sensor_type;location;lat;lon;timestamp;P1;durP1;ratioP1;P2;durP2;ratioP2
57826;SDS011;43656;57.746;11.780;2023-07-31T00:00:30;4.97;;;1.55;;
57826;SDS011;43656;57.746;11.780;2023-07-31T00:02:56;3.05;;;1.42;;
57826;SDS011;43656;57.746;11.780;2023-07-31T00:05:21;5.20;;;1.60;;
57826;SDS011;43656;57.746;11.780;2023-07-31T00:07:47;6.18;;;1.92;;
57826;SDS011;43656;57.746;11.780;2023-07-31T00:10:12;4.55;;;1.48;;
57826;SDS011;43656;57.746;11.780;2023-07-31T00:12:38;5.75;;;1.77;;
57826;SDS011;43656;57.746;11.780;2023-07-31T00:15:05;5.30;;;1.50;;
57826;SDS011;43656;57.746;11.780;2023-07-31T00:17:31;3.03;;;1.30;;
57826;SDS011;43656;57.746;11.780;2023-07-31T00:19:57;5.15;;;1.30;;
57826;SDS011;43656;57.746;11.780;2023-07-31T00:22:23;4.05;;;1.52;;
57826;SDS011;43656;57.746;11.780;2023-07-31T00:24:48;3.30;;;1.50;;
57826;SDS011;43656;57.746;11.780;2023-07-31T00:27:14;6.32;;;1.55;;
57826;SDS011;43656;57.746;11.780;2023-07-31T00:29:40;3.92;;;1.50;;
57826;SDS011;43656;57.746;11.780;2023-07-31T00:32:05;3.63;;;1.63;;
57826;SDS011;43656;57.746;11.780;2023-07-31T00:34:31;6.22;;;1.70;;
57826;SDS011;43656;57.746;11.780;2023-07-31T00:36:56;3.00;;;1.40;;
57826;SDS011;43656;57.746;11.780;2023-07-31T00:39:22;3.58;;;1.55;;
57826;SDS011;43656;57.746;11.780;2023-07-31T00:41:47;5.32;;;1.55;;
57826;SDS011;43656;57.746;11.780;2023-07-31T00:44:13;3.30;;;1.80;;
57826;SDS011;43656;57.746;11.780;2023-07-31T00:46:38;3.92;;;1.60;;
57826;SDS011;43656;57.746;11.780;2023-07-31T00:49:04;2.35;;;1.35;;
57826;SDS011;43656;57.746;11.780;2023-07-31T00:51:30;6.45;;;1.60;;
57826;SDS011;43656;57.746;11.780;2023-07-31T00:53:56;3.38;;;1.48;;
57826;SDS011;43656;57.746;11.780;2023-07-31T00:56:22;5.25;;;1.60;;
57826;SDS011;43656;57.746;11.780;2023-07-31T00:58:48;4.30;;;1.70;;
57826;SDS011;43656;57.746;11.780;2023-07-31T01:01:14;3.83;;;1.50;;
57826;SDS011;43656;57.746;11.780;2023-07-31T01:03:40;3.47;;;1.52;;
57826;SDS011;43656;57.746;11.780;2023-07-31T01:11:25;5.85;;;1.52;;
57826;SDS011;43656;57.746;11.780;2023-07-31T01:13:54;5.05;;;1.55;;
57826;SDS011;43656;57.746;11.780;2023-07-31T01:16:20;7.07;;;1.70;;
57826;SDS011;43656;57.746;11.780;2023-07-31T01:18:46;4.43;;;1.60;;
57826;SDS011;43656;57.746;11.780;2023-07-31T01:26:12;4.85;;;1.80;;
57826;SDS011;43656;57.746;11.780;2023-07-31T01:31:42;4.15;;;1.90;;
57826;SDS011;43656;57.746;11.780;2023-07-31T01:34:13;4.68;;;2.03;;
57826;SDS011;43656;57.746;11.780;2023-07-31T01:36:42;5.38;;;1.73;;
57826;SDS011;43656;57.746;11.780;2023-07-31T01:39:08;6.45;;;1.90;;
57826;SDS011;43656;57.746;11.780;2023-07-31T01:41:33;4.22;;;1.92;;
57826;SDS011;43656;57.746;11.780;2023-07-31T01:43:59;4.18;;;2.08;;
57826;SDS011;43656;57.746;11.780;2023-07-31T01:46:24;6.80;;;2.53;;
57826;SDS011;43656;57.746;11.780;2023-07-31T01:48:50;4.40;;;2.50;;
57826;SDS011;43656;57.746;11.780;2023-07-31T01:51:15;5.40;;;2.20;;
57826;SDS011;43656;57.746;11.780;2023-07-31T01:53:41;6.85;;;2.30;;
57826;SDS011;43656;57.746;11.780;2023-07-31T01:56:06;5.20;;;2.60;;
57826;SDS011;43656;57.746;11.780;2023-07-31T01:58:32;6.22;;;2.60;;
57826;SDS011;43656;57.746;11.780;2023-07-31T02:00:57;5.57;;;2.53;;
57826;SDS011;43656;57.746;11.780;2023-07-31T02:03:22;8.95;;;2.60;;
57826;SDS011;43656;57.746;11.780;2023-07-31T02:05:48;6.15;;;2.58;;
57826;SDS011;43656;57.746;11.780;2023-07-31T02:08:15;9.80;;;2.80;;
57826;SDS011;43656;57.746;11.780;2023-07-31T02:10:41;6.05;;;2.83;;
57826;SDS011;43656;57.746;11.780;2023-07-31T02:13:07;5.60;;;2.90;;
57826;SDS011;43656;57.746;11.780;2023-07-31T02:15:32;5.45;;;3.00;;
57826;SDS011;43656;57.746;11.780;2023-07-31T02:17:58;6.95;;;3.03;;
57826;SDS011;43656;57.746;11.780;2023-07-31T02:20:23;5.10;;;2.70;;
57826;SDS011;43656;57.746;11.780;2023-07-31T02:22:49;7.13;;;3.00;;
57826;SDS011;43656;57.746;11.780;2023-07-31T02:25:14;6.38;;;2.70;;
57826;SDS011;43656;57.746;11.780;2023-07-31T02:27:40;8.25;;;2.75;;
57826;SDS011;43656;57.746;11.780;2023-07-31T02:30:06;5.35;;;3.00;;
57826;SDS011;43656;57.746;11.780;2023-07-31T02:32:32;4.57;;;2.78;;
57826;SDS011;43656;57.746;11.780;2023-07-31T02:34:57;7.43;;;2.92;;
57826;SDS011;43656;57.746;11.780;2023-07-31T02:37:23;4.00;;;2.67;;
57826;SDS011;43656;57.746;11.780;2023-07-31T02:39:48;7.00;;;2.67;;
57826;SDS011;43656;57.746;11.780;2023-07-31T02:42:14;8.23;;;2.63;;
57826;SDS011;43656;57.746;11.780;2023-07-31T02:44:40;4.85;;;2.70;;
57826;SDS011;43656;57.746;11.780;2023-07-31T02:47:05;5.85;;;3.00;;
57826;SDS011;43656;57.746;11.780;2023-07-31T02:49:31;7.43;;;3.17;;
57826;SDS011;43656;57.746;11.780;2023-07-31T02:51:56;5.72;;;2.83;;
57826;SDS011;43656;57.746;11.780;2023-07-31T02:54:21;5.35;;;3.03;;
57826;SDS011;43656;57.746;11.780;2023-07-31T02:56:47;4.40;;;3.10;;
57826;SDS011;43656;57.746;11.780;2023-07-31T02:59:13;6.97;;;3.50;;
57826;SDS011;43656;57.746;11.780;2023-07-31T03:01:38;9.55;;;3.60;;
57826;SDS011;43656;57.746;11.780;2023-07-31T03:04:04;6.15;;;3.17;;
57826;SDS011;43656;57.746;11.780;2023-07-31T03:06:30;6.95;;;3.33;;
57826;SDS011;43656;57.746;11.780;2023-07-31T03:08:55;5.88;;;3.30;;
57826;SDS011;43656;57.746;11.780;2023-07-31T03:11:21;9.02;;;3.78;;
57826;SDS011;43656;57.746;11.780;2023-07-31T03:13:46;8.27;;;3.78;;
57826;SDS011;43656;57.746;11.780;2023-07-31T03:16:12;8.98;;;4.07;;
57826;SDS011;43656;57.746;11.780;2023-07-31T03:18:37;7.90;;;3.85;;
57826;SDS011;43656;57.746;11.780;2023-07-31T03:21:03;8.77;;;4.03;;
57826;SDS011;43656;57.746;11.780;2023-07-31T03:23:29;7.13;;;4.10;;
57826;SDS011;43656;57.746;11.780;2023-07-31T03:25:55;9.73;;;4.10;;
57826;SDS011;43656;57.746;11.780;2023-07-31T03:28:26;7.97;;;4.32;;
57826;SDS011;43656;57.746;11.780;2023-07-31T03:30:51;5.95;;;4.55;;
57826;SDS011;43656;57.746;11.780;2023-07-31T03:33:17;10.38;;;4.15;;
57826;SDS011;43656;57.746;11.780;2023-07-31T03:35:43;8.77;;;4.22;;
57826;SDS011;43656;57.746;11.780;2023-07-31T03:38:08;7.55;;;3.72;;
57826;SDS011;43656;57.746;11.780;2023-07-31T03:40:33;7.97;;;3.78;;
57826;SDS011;43656;57.746;11.780;2023-07-31T03:42:59;7.90;;;4.07;;
57826;SDS011;43656;57.746;11.780;2023-07-31T03:45:24;8.00;;;3.70;;
57826;SDS011;43656;57.746;11.780;2023-07-31T03:47:50;5.95;;;3.67;;
57826;SDS011;43656;57.746;11.780;2023-07-31T03:50:15;8.95;;;3.63;;
57826;SDS011;43656;57.746;11.780;2023-07-31T03:52:41;11.38;;;3.40;;
57826;SDS011;43656;57.746;11.780;2023-07-31T03:55:07;8.15;;;3.67;;
57826;SDS011;43656;57.746;11.780;2023-07-31T03:57:32;8.02;;;3.47;;
57826;SDS011;43656;57.746;11.780;2023-07-31T03:59:58;8.77;;;3.72;;
57826;SDS011;43656;57.746;11.780;2023-07-31T04:02:23;6.13;;;3.45;;
57826;SDS011;43656;57.746;11.780;2023-07-31T04:04:49;10.20;;;3.47;;
57826;SDS011;43656;57.746;11.780;2023-07-31T04:07:14;5.28;;;3.72;;
57826;SDS011;43656;57.746;11.780;2023-07-31T04:09:40;8.02;;;3.45;;
57826;SDS011;43656;57.746;11.780;2023-07-31T04:12:05;8.77;;;3.60;;
57826;SDS011;43656;57.746;11.780;2023-07-31T04:14:31;8.43;;;3.90;;
57826;SDS011;43656;57.746;11.780;2023-07-31T04:16:56;9.43;;;3.65;;
57826;SDS011;43656;57.746;11.780;2023-07-31T04:19:22;8.75;;;3.70;;
57826;SDS011;43656;57.746;11.780;2023-07-31T04:21:47;10.10;;;3.40;;
57826;SDS011;43656;57.746;11.780;2023-07-31T04:24:12;8.98;;;3.65;;
57826;SDS011;43656;57.746;11.780;2023-07-31T04:26:38;6.65;;;3.45;;
57826;SDS011;43656;57.746;11.780;2023-07-31T04:29:03;4.47;;;3.28;;
57826;SDS011;43656;57.746;11.780;2023-07-31T04:31:29;8.85;;;3.97;;
57826;SDS011;43656;57.746;11.780;2023-07-31T04:33:55;11.05;;;3.60;;
57826;SDS011;43656;57.746;11.780;2023-07-31T04:36:21;15.05;;;4.60;;
57826;SDS011;43656;57.746;11.780;2023-07-31T04:38:46;13.07;;;4.13;;
57826;SDS011;43656;57.746;11.780;2023-07-31T04:41:12;10.93;;;4.20;;
57826;SDS011;43656;57.746;11.780;2023-07-31T04:43:37;9.95;;;3.92;;
57826;SDS011;43656;57.746;11.780;2023-07-31T04:46:04;10.23;;;3.90;;
57826;SDS011;43656;57.746;11.780;2023-07-31T04:48:30;12.00;;;4.28;;
57826;SDS011;43656;57.746;11.780;2023-07-31T04:50:55;12.98;;;4.25;;
57826;SDS011;43656;57.746;11.780;2023-07-31T04:53:21;12.85;;;4.07;;
57826;SDS011;43656;57.746;11.780;2023-07-31T04:55:46;9.68;;;3.60;;
57826;SDS011;43656;57.746;11.780;2023-07-31T04:58:12;12.05;;;3.45;;
57826;SDS011;43656;57.746;11.780;2023-07-31T05:00:37;7.85;;;3.20;;
57826;SDS011;43656;57.746;11.780;2023-07-31T05:03:02;9.93;;;3.38;;
57826;SDS011;43656;57.746;11.780;2023-07-31T05:05:28;11.50;;;3.42;;
57826;SDS011;43656;57.746;11.780;2023-07-31T05:07:53;10.00;;;3.20;;
57826;SDS011;43656;57.746;11.780;2023-07-31T05:10:19;14.75;;;3.45;;
57826;SDS011;43656;57.746;11.780;2023-07-31T05:12:44;10.13;;;3.47;;
57826;SDS011;43656;57.746;11.780;2023-07-31T05:15:10;14.27;;;3.22;;
57826;SDS011;43656;57.746;11.780;2023-07-31T05:17:35;9.15;;;2.97;;
57826;SDS011;43656;57.746;11.780;2023-07-31T05:20:01;12.20;;;3.20;;
57826;SDS011;43656;57.746;11.780;2023-07-31T05:22:26;9.15;;;3.28;;
57826;SDS011;43656;57.746;11.780;2023-07-31T05:24:52;7.72;;;2.75;;
57826;SDS011;43656;57.746;11.780;2023-07-31T05:27:19;7.95;;;2.80;;
57826;SDS011;43656;57.746;11.780;2023-07-31T05:29:45;9.70;;;2.95;;
57826;SDS011;43656;57.746;11.780;2023-07-31T05:32:10;10.05;;;2.95;;
57826;SDS011;43656;57.746;11.780;2023-07-31T05:34:36;7.95;;;2.58;;
57826;SDS011;43656;57.746;11.780;2023-07-31T05:37:02;8.10;;;2.45;;
57826;SDS011;43656;57.746;11.780;2023-07-31T05:39:27;8.38;;;2.40;;
57826;SDS011;43656;57.746;11.780;2023-07-31T05:41:52;11.13;;;2.20;;
57826;SDS011;43656;57.746;11.780;2023-07-31T05:44:18;7.95;;;2.45;;
57826;SDS011;43656;57.746;11.780;2023-07-31T05:46:44;11.27;;;2.20;;
57826;SDS011;43656;57.746;11.780;2023-07-31T05:49:09;8.32;;;2.15;;
57826;SDS011;43656;57.746;11.780;2023-07-31T05:51:35;9.85;;;2.53;;
57826;SDS011;43656;57.746;11.780;2023-07-31T05:54:00;14.05;;;2.85;;
57826;SDS011;43656;57.746;11.780;2023-07-31T05:56:26;7.28;;;2.30;;
57826;SDS011;43656;57.746;11.780;2023-07-31T05:58:52;13.65;;;2.50;;
57826;SDS011;43656;57.746;11.780;2023-07-31T06:01:17;7.43;;;2.63;;
57826;SDS011;43656;57.746;11.780;2023-07-31T06:03:43;9.90;;;2.50;;
57826;SDS011;43656;57.746;11.780;2023-07-31T06:06:09;10.73;;;2.40;;
57826;SDS011;43656;57.746;11.780;2023-07-31T06:08:34;11.80;;;2.72;;
57826;SDS011;43656;57.746;11.780;2023-07-31T06:11:00;9.68;;;2.08;;
57826;SDS011;43656;57.746;11.780;2023-07-31T06:13:25;11.93;;;2.30;;
57826;SDS011;43656;57.746;11.780;2023-07-31T06:15:50;12.45;;;2.38;;
57826;SDS011;43656;57.746;11.780;2023-07-31T06:18:16;7.30;;;2.00;;
57826;SDS011;43656;57.746;11.780;2023-07-31T06:20:41;7.65;;;2.08;;
57826;SDS011;43656;57.746;11.780;2023-07-31T06:23:07;6.57;;;1.83;;
57826;SDS011;43656;57.746;11.780;2023-07-31T06:25:33;8.45;;;1.98;;
57826;SDS011;43656;57.746;11.780;2023-07-31T06:27:58;9.52;;;1.98;;
57826;SDS011;43656;57.746;11.780;2023-07-31T06:30:23;6.78;;;2.03;;
57826;SDS011;43656;57.746;11.780;2023-07-31T06:32:49;9.60;;;1.90;;
57826;SDS011;43656;57.746;11.780;2023-07-31T06:35:14;9.93;;;2.08;;
57826;SDS011;43656;57.746;11.780;2023-07-31T06:37:40;14.13;;;2.15;;
57826;SDS011;43656;57.746;11.780;2023-07-31T06:40:08;10.75;;;1.85;;
57826;SDS011;43656;57.746;11.780;2023-07-31T06:42:34;7.60;;;2.00;;
57826;SDS011;43656;57.746;11.780;2023-07-31T06:45:00;9.95;;;2.05;;
57826;SDS011;43656;57.746;11.780;2023-07-31T06:47:26;11.38;;;2.38;;
57826;SDS011;43656;57.746;11.780;2023-07-31T06:49:51;9.68;;;1.95;;
57826;SDS011;43656;57.746;11.780;2023-07-31T06:52:17;13.27;;;2.25;;
57826;SDS011;43656;57.746;11.780;2023-07-31T06:54:42;10.45;;;1.90;;
57826;SDS011;43656;57.746;11.780;2023-07-31T06:57:07;8.95;;;2.08;;
57826;SDS011;43656;57.746;11.780;2023-07-31T06:59:33;14.75;;;2.28;;
57826;SDS011;43656;57.746;11.780;2023-07-31T07:01:58;8.55;;;1.77;;
57826;SDS011;43656;57.746;11.780;2023-07-31T07:04:24;9.85;;;1.85;;
57826;SDS011;43656;57.746;11.780;2023-07-31T07:06:49;17.42;;;2.85;;
57826;SDS011;43656;57.746;11.780;2023-07-31T07:09:15;17.70;;;2.75;;
57826;SDS011;43656;57.746;11.780;2023-07-31T07:11:40;11.10;;;2.28;;
57826;SDS011;43656;57.746;11.780;2023-07-31T07:14:06;7.55;;;2.00;;
57826;SDS011;43656;57.746;11.780;2023-07-31T07:16:31;10.05;;;2.08;;
57826;SDS011;43656;57.746;11.780;2023-07-31T07:18:56;5.55;;;1.52;;
57826;SDS011;43656;57.746;11.780;2023-07-31T07:21:22;5.20;;;1.60;;
57826;SDS011;43656;57.746;11.780;2023-07-31T07:23:48;7.13;;;1.90;;
57826;SDS011;43656;57.746;11.780;2023-07-31T07:26:13;9.63;;;2.15;;
57826;SDS011;43656;57.746;11.780;2023-07-31T07:28:39;12.55;;;1.98;;
57826;SDS011;43656;57.746;11.780;2023-07-31T07:31:04;7.18;;;2.03;;
57826;SDS011;43656;57.746;11.780;2023-07-31T07:33:30;9.50;;;2.33;;
57826;SDS011;43656;57.746;11.780;2023-07-31T07:35:55;10.07;;;2.28;;
57826;SDS011;43656;57.746;11.780;2023-07-31T07:38:24;9.73;;;2.33;;
57826;SDS011;43656;57.746;11.780;2023-07-31T07:40:50;11.40;;;2.40;;
57826;SDS011;43656;57.746;11.780;2023-07-31T07:43:18;8.65;;;2.30;;
57826;SDS011;43656;57.746;11.780;2023-07-31T07:45:43;10.95;;;2.42;;
57826;SDS011;43656;57.746;11.780;2023-07-31T07:48:09;9.27;;;2.20;;
57826;SDS011;43656;57.746;11.780;2023-07-31T07:50:34;11.20;;;2.22;;
57826;SDS011;43656;57.746;11.780;2023-07-31T07:52:59;10.15;;;2.60;;
57826;SDS011;43656;57.746;11.780;2023-07-31T07:55:25;5.75;;;1.85;;
57826;SDS011;43656;57.746;11.780;2023-07-31T07:57:51;12.35;;;2.55;;
57826;SDS011;43656;57.746;11.780;2023-07-31T08:00:16;11.50;;;2.22;;
57826;SDS011;43656;57.746;11.780;2023-07-31T08:02:43;9.60;;;2.15;;
57826;SDS011;43656;57.746;11.780;2023-07-31T08:05:09;6.30;;;2.10;;
57826;SDS011;43656;57.746;11.780;2023-07-31T08:07:34;6.35;;;1.65;;
57826;SDS011;43656;57.746;11.780;2023-07-31T08:10:00;9.70;;;2.22;;
57826;SDS011;43656;57.746;11.780;2023-07-31T08:12:25;6.30;;;1.85;;
57826;SDS011;43656;57.746;11.780;2023-07-31T08:14:50;7.50;;;1.77;;
57826;SDS011;43656;57.746;11.780;2023-07-31T08:17:17;9.05;;;1.98;;
57826;SDS011;43656;57.746;11.780;2023-07-31T08:19:42;6.75;;;1.83;;
57826;SDS011;43656;57.746;11.780;2023-07-31T08:22:09;6.43;;;1.73;;
57826;SDS011;43656;57.746;11.780;2023-07-31T08:24:34;5.68;;;1.50;;
57826;SDS011;43656;57.746;11.780;2023-07-31T08:27:00;5.25;;;1.15;;
57826;SDS011;43656;57.746;11.780;2023-07-31T08:29:25;2.90;;;0.90;;
57826;SDS011;43656;57.746;11.780;2023-07-31T08:31:50;3.72;;;0.90;;
57826;SDS011;43656;57.746;11.780;2023-07-31T08:34:16;3.85;;;1.15;;
57826;SDS011;43656;57.746;11.780;2023-07-31T08:36:41;4.43;;;1.20;;
57826;SDS011;43656;57.746;11.780;2023-07-31T08:39:08;5.78;;;1.40;;
57826;SDS011;43656;57.746;11.780;2023-07-31T08:41:39;4.88;;;1.38;;
57826;SDS011;43656;57.746;11.780;2023-07-31T08:44:05;5.05;;;1.40;;
57826;SDS011;43656;57.746;11.780;2023-07-31T08:46:32;5.70;;;1.35;;
57826;SDS011;43656;57.746;11.780;2023-07-31T08:48:58;4.10;;;1.52;;
57826;SDS011;43656;57.746;11.780;2023-07-31T08:51:25;4.93;;;1.48;;
57826;SDS011;43656;57.746;11.780;2023-07-31T08:53:52;3.50;;;1.27;;
57826;SDS011;43656;57.746;11.780;2023-07-31T08:56:18;6.40;;;1.42;;
57826;SDS011;43656;57.746;11.780;2023-07-31T08:58:44;4.47;;;1.33;;
57826;SDS011;43656;57.746;11.780;2023-07-31T09:01:12;5.63;;;1.30;;
57826;SDS011;43656;57.746;11.780;2023-07-31T09:03:40;6.88;;;1.10;;
57826;SDS011;43656;57.746;11.780;2023-07-31T09:06:06;3.78;;;1.05;;
57826;SDS011;43656;57.746;11.780;2023-07-31T09:08:32;3.75;;;1.30;;
57826;SDS011;43656;57.746;11.780;2023-07-31T09:11:01;2.42;;;1.20;;
57826;SDS011;43656;57.746;11.780;2023-07-31T09:13:31;5.47;;;1.38;;
57826;SDS011;43656;57.746;11.780;2023-07-31T09:15:57;3.85;;;0.90;;
57826;SDS011;43656;57.746;11.780;2023-07-31T09:18:23;4.32;;;1.00;;
57826;SDS011;43656;57.746;11.780;2023-07-31T09:21:09;3.55;;;1.08;;
57826;SDS011;43656;57.746;11.780;2023-07-31T09:23:44;4.53;;;1.20;;
57826;SDS011;43656;57.746;11.780;2023-07-31T09:26:10;4.35;;;0.88;;
57826;SDS011;43656;57.746;11.780;2023-07-31T09:28:36;1.70;;;0.65;;
57826;SDS011;43656;57.746;11.780;2023-07-31T09:31:01;3.13;;;0.77;;
57826;SDS011;43656;57.746;11.780;2023-07-31T09:33:27;2.17;;;0.65;;
57826;SDS011;43656;57.746;11.780;2023-07-31T09:35:52;2.95;;;0.57;;
57826;SDS011;43656;57.746;11.780;2023-07-31T09:38:18;2.83;;;0.60;;
57826;SDS011;43656;57.746;11.780;2023-07-31T09:40:44;3.80;;;0.88;;
57826;SDS011;43656;57.746;11.780;2023-07-31T09:43:13;2.85;;;0.90;;
57826;SDS011;43656;57.746;11.780;2023-07-31T09:45:43;4.35;;;0.80;;
57826;SDS011;43656;57.746;11.780;2023-07-31T09:48:11;2.33;;;0.70;;
57826;SDS011;43656;57.746;11.780;2023-07-31T09:50:42;2.42;;;0.70;;
57826;SDS011;43656;57.746;11.780;2023-07-31T09:53:09;2.17;;;0.60;;
57826;SDS011;43656;57.746;11.780;2023-07-31T09:55:35;1.95;;;0.65;;
57826;SDS011;43656;57.746;11.780;2023-07-31T09:58:11;2.90;;;0.80;;
57826;SDS011;43656;57.746;11.780;2023-07-31T10:00:38;3.00;;;0.50;;
57826;SDS011;43656;57.746;11.780;2023-07-31T10:03:04;1.83;;;0.80;;
57826;SDS011;43656;57.746;11.780;2023-07-31T10:05:34;1.85;;;0.63;;
57826;SDS011;43656;57.746;11.780;2023-07-31T10:08:00;2.63;;;0.70;;
57826;SDS011;43656;57.746;11.780;2023-07-31T10:10:26;1.98;;;0.90;;
57826;SDS011;43656;57.746;11.780;2023-07-31T10:12:53;2.35;;;0.70;;
57826;SDS011;43656;57.746;11.780;2023-07-31T10:15:20;2.75;;;0.60;;
57826;SDS011;43656;57.746;11.780;2023-07-31T10:17:47;2.90;;;0.80;;
57826;SDS011;43656;57.746;11.780;2023-07-31T10:20:14;2.50;;;0.63;;
57826;SDS011;43656;57.746;11.780;2023-07-31T10:22:41;1.83;;;0.85;;
57826;SDS011;43656;57.746;11.780;2023-07-31T10:25:07;2.78;;;0.60;;
57826;SDS011;43656;57.746;11.780;2023-07-31T10:27:35;2.95;;;0.60;;
57826;SDS011;43656;57.746;11.780;2023-07-31T10:30:01;2.58;;;0.70;;
57826;SDS011;43656;57.746;11.780;2023-07-31T10:32:29;1.98;;;0.80;;
57826;SDS011;43656;57.746;11.780;2023-07-31T10:34:55;1.73;;;0.60;;
57826;SDS011;43656;57.746;11.780;2023-07-31T10:37:25;2.50;;;0.80;;
57826;SDS011;43656;57.746;11.780;2023-07-31T10:39:59;2.33;;;0.65;;
57826;SDS011;43656;57.746;11.780;2023-07-31T10:42:45;2.63;;;0.80;;
57826;SDS011;43656;57.746;11.780;2023-07-31T10:45:24;3.20;;;0.88;;
57826;SDS011;43656;57.746;11.780;2023-07-31T10:48:02;2.78;;;0.70;;
57826;SDS011;43656;57.746;11.780;2023-07-31T10:50:30;2.40;;;0.90;;
57826;SDS011;43656;57.746;11.780;2023-07-31T10:52:59;2.65;;;0.75;;
57826;SDS011;43656;57.746;11.780;2023-07-31T10:55:32;2.92;;;0.70;;
57826;SDS011;43656;57.746;11.780;2023-07-31T10:58:07;3.53;;;0.63;;
57826;SDS011;43656;57.746;11.780;2023-07-31T11:00:36;1.67;;;0.60;;
57826;SDS011;43656;57.746;11.780;2023-07-31T11:08:17;2.50;;;0.80;;
57826;SDS011;43656;57.746;11.780;2023-07-31T11:10:48;3.42;;;0.80;;
57826;SDS011;43656;57.746;11.780;2023-07-31T11:13:51;5.43;;;1.17;;
57826;SDS011;43656;57.746;11.780;2023-07-31T11:16:18;3.70;;;0.73;;
57826;SDS011;43656;57.746;11.780;2023-07-31T11:18:48;3.13;;;0.82;;
57826;SDS011;43656;57.746;11.780;2023-07-31T11:21:15;2.90;;;0.80;;
57826;SDS011;43656;57.746;11.780;2023-07-31T11:23:45;3.72;;;0.70;;
57826;SDS011;43656;57.746;11.780;2023-07-31T11:26:15;4.72;;;0.93;;
57826;SDS011;43656;57.746;11.780;2023-07-31T11:28:41;3.00;;;0.65;;
57826;SDS011;43656;57.746;11.780;2023-07-31T11:31:10;3.30;;;0.80;;
57826;SDS011;43656;57.746;11.780;2023-07-31T11:33:36;3.40;;;0.88;;
57826;SDS011;43656;57.746;11.780;2023-07-31T11:36:01;3.65;;;1.02;;
57826;SDS011;43656;57.746;11.780;2023-07-31T11:38:27;3.30;;;0.80;;
57826;SDS011;43656;57.746;11.780;2023-07-31T11:40:55;3.55;;;0.80;;
57826;SDS011;43656;57.746;11.780;2023-07-31T11:43:22;4.78;;;1.05;;
57826;SDS011;43656;57.746;11.780;2023-07-31T11:45:49;2.55;;;0.80;;
57826;SDS011;43656;57.746;11.780;2023-07-31T11:48:19;3.50;;;0.80;;
57826;SDS011;43656;57.746;11.780;2023-07-31T11:50:46;4.78;;;0.90;;
57826;SDS011;43656;57.746;11.780;2023-07-31T11:53:12;2.08;;;0.60;;
57826;SDS011;43656;57.746;11.780;2023-07-31T11:55:38;3.67;;;0.80;;
57826;SDS011;43656;57.746;11.780;2023-07-31T11:58:04;2.05;;;0.50;;
57826;SDS011;43656;57.746;11.780;2023-07-31T12:00:31;2.55;;;0.80;;
57826;SDS011;43656;57.746;11.780;2023-07-31T12:02:57;3.92;;;0.70;;
57826;SDS011;43656;57.746;11.780;2023-07-31T12:05:23;3.10;;;0.77;;
57826;SDS011;43656;57.746;11.780;2023-07-31T12:07:53;2.53;;;0.95;;
57826;SDS011;43656;57.746;11.780;2023-07-31T12:13:10;3.45;;;0.90;;
57826;SDS011;43656;57.746;11.780;2023-07-31T12:15:40;5.60;;;1.05;;
57826;SDS011;43656;57.746;11.780;2023-07-31T12:18:08;3.08;;;0.90;;
57826;SDS011;43656;57.746;11.780;2023-07-31T12:20:45;3.17;;;0.70;;
57826;SDS011;43656;57.746;11.780;2023-07-31T12:23:15;2.53;;;0.80;;
57826;SDS011;43656;57.746;11.780;2023-07-31T12:26:02;3.22;;;0.75;;
57826;SDS011;43656;57.746;11.780;2023-07-31T12:28:50;5.18;;;0.90;;
57826;SDS011;43656;57.746;11.780;2023-07-31T12:31:22;3.60;;;0.98;;
57826;SDS011;43656;57.746;11.780;2023-07-31T12:33:49;3.33;;;1.00;;
57826;SDS011;43656;57.746;11.780;2023-07-31T12:36:16;3.83;;;0.85;;
57826;SDS011;43656;57.746;11.780;2023-07-31T12:38:43;4.55;;;1.45;;
57826;SDS011;43656;57.746;11.780;2023-07-31T12:41:09;4.22;;;1.17;;
57826;SDS011;43656;57.746;11.780;2023-07-31T12:43:35;4.13;;;1.02;;
57826;SDS011;43656;57.746;11.780;2023-07-31T12:46:02;4.45;;;0.88;;
57826;SDS011;43656;57.746;11.780;2023-07-31T12:48:28;6.00;;;1.10;;
57826;SDS011;43656;57.746;11.780;2023-07-31T12:50:54;3.72;;;1.05;;
57826;SDS011;43656;57.746;11.780;2023-07-31T12:53:20;3.47;;;0.90;;
57826;SDS011;43656;57.746;11.780;2023-07-31T12:55:46;2.28;;;0.60;;
57826;SDS011;43656;57.746;11.780;2023-07-31T12:58:11;3.60;;;0.90;;
57826;SDS011;43656;57.746;11.780;2023-07-31T13:00:37;3.90;;;0.77;;
57826;SDS011;43656;57.746;11.780;2023-07-31T13:03:03;3.50;;;0.90;;
57826;SDS011;43656;57.746;11.780;2023-07-31T13:05:28;4.47;;;0.82;;
57826;SDS011;43656;57.746;11.780;2023-07-31T13:07:54;4.20;;;1.08;;
57826;SDS011;43656;57.746;11.780;2023-07-31T13:10:22;5.18;;;0.93;;
57826;SDS011;43656;57.746;11.780;2023-07-31T13:12:48;4.00;;;0.90;;
57826;SDS011;43656;57.746;11.780;2023-07-31T13:15:13;4.07;;;1.05;;
57826;SDS011;43656;57.746;11.780;2023-07-31T13:17:39;3.50;;;0.90;;
57826;SDS011;43656;57.746;11.780;2023-07-31T13:20:05;4.97;;;1.20;;
57826;SDS011;43656;57.746;11.780;2023-07-31T13:22:30;6.20;;;1.33;;
57826;SDS011;43656;57.746;11.780;2023-07-31T13:24:56;5.13;;;1.02;;
57826;SDS011;43656;57.746;11.780;2023-07-31T13:27:22;3.30;;;0.95;;
57826;SDS011;43656;57.746;11.780;2023-07-31T13:29:53;6.07;;;1.23;;
57826;SDS011;43656;57.746;11.780;2023-07-31T13:32:19;5.10;;;1.13;;
57826;SDS011;43656;57.746;11.780;2023-07-31T13:34:47;4.15;;;0.98;;
57826;SDS011;43656;57.746;11.780;2023-07-31T13:37:13;3.03;;;0.90;;
57826;SDS011;43656;57.746;11.780;2023-07-31T13:39:39;3.97;;;1.13;;
57826;SDS011;43656;57.746;11.780;2023-07-31T13:42:05;5.93;;;1.10;;
57826;SDS011;43656;57.746;11.780;2023-07-31T13:44:33;6.38;;;1.00;;
57826;SDS011;43656;57.746;11.780;2023-07-31T13:47:01;3.47;;;1.00;;
57826;SDS011;43656;57.746;11.780;2023-07-31T13:49:27;5.47;;;0.90;;
57826;SDS011;43656;57.746;11.780;2023-07-31T13:51:53;2.53;;;0.93;;
57826;SDS011;43656;57.746;11.780;2023-07-31T13:54:19;6.00;;;0.90;;
57826;SDS011;43656;57.746;11.780;2023-07-31T13:56:44;3.65;;;0.82;;
57826;SDS011;43656;57.746;11.780;2023-07-31T13:59:10;3.53;;;0.80;;
57826;SDS011;43656;57.746;11.780;2023-07-31T14:01:36;1.95;;;0.65;;
57826;SDS011;43656;57.746;11.780;2023-07-31T14:04:01;3.88;;;0.90;;
57826;SDS011;43656;57.746;11.780;2023-07-31T14:06:27;4.30;;;1.10;;
57826;SDS011;43656;57.746;11.780;2023-07-31T14:08:52;3.42;;;0.95;;
57826;SDS011;43656;57.746;11.780;2023-07-31T14:11:17;4.57;;;1.02;;
57826;SDS011;43656;57.746;11.780;2023-07-31T14:13:43;3.17;;;1.05;;
57826;SDS011;43656;57.746;11.780;2023-07-31T14:16:08;4.10;;;1.08;;
57826;SDS011;43656;57.746;11.780;2023-07-31T14:18:34;4.30;;;1.00;;
57826;SDS011;43656;57.746;11.780;2023-07-31T14:20:59;5.32;;;1.20;;
57826;SDS011;43656;57.746;11.780;2023-07-31T14:23:24;8.75;;;1.30;;
57826;SDS011;43656;57.746;11.780;2023-07-31T14:25:50;4.93;;;1.10;;
57826;SDS011;43656;57.746;11.780;2023-07-31T14:28:15;6.82;;;1.23;;
57826;SDS011;43656;57.746;11.780;2023-07-31T14:30:40;8.93;;;1.90;;
57826;SDS011;43656;57.746;11.780;2023-07-31T14:33:06;8.05;;;1.63;;
57826;SDS011;43656;57.746;11.780;2023-07-31T14:35:32;12.48;;;2.22;;
57826;SDS011;43656;57.746;11.780;2023-07-31T14:37:57;5.90;;;1.40;;
57826;SDS011;43656;57.746;11.780;2023-07-31T14:40:23;6.00;;;1.60;;
57826;SDS011;43656;57.746;11.780;2023-07-31T14:42:50;8.80;;;1.50;;
57826;SDS011;43656;57.746;11.780;2023-07-31T14:45:15;3.45;;;1.05;;
57826;SDS011;43656;57.746;11.780;2023-07-31T14:47:40;6.68;;;1.38;;
57826;SDS011;43656;57.746;11.780;2023-07-31T14:50:06;3.83;;;1.30;;